sensor_id;sensor_type;location;lat;lon;timestamp;pressure;altitude;pressure_sealevel;temperature;humidity
15998;BME280;8103;51.340;12.326;2023-01-29T00:02:16;101546.22;;;0.49;71.17
15998;BME280;8103;51.340;12.326;2023-01-29T00:04:43;101558.59;;;0.48;71.05
15998;BME280;8103;51.340;12.326;2023-01-29T00:07:10;101552.66;;;0.46;71.88
15998;BME280;8103;51.340;12.326;2023-01-29T00:09:37;101547.69;;;0.43;71.68
15998;BME280;8103;51.340;12.326;2023-01-29T00:12:08;101549.63;;;0.41;71.61
15998;BME280;8103;51.340;12.326;2023-01-29T00:14:34;101540.22;;;0.39;71.23
15998;BME280;8103;51.340;12.326;2023-01-29T00:17:01;101526.22;;;0.38;71.51
15998;BME280;8103;51.340;12.326;2023-01-29T00:19:28;101526.53;;;0.35;71.55
15998;BME280;8103;51.340;12.326;2023-01-29T00:21:55;101535.56;;;0.33;71.72
15998;BME280;8103;51.340;12.326;2023-01-29T00:24:22;101531.44;;;0.30;71.74
15998;BME280;8103;51.340;12.326;2023-01-29T00:26:49;101535.06;;;0.29;72.17
15998;BME280;8103;51.340;12.326;2023-01-29T00:29:16;101530.75;;;0.28;71.86
15998;BME280;8103;51.340;12.326;2023-01-29T00:31:44;101532.41;;;0.29;71.63
15998;BME280;8103;51.340;12.326;2023-01-29T00:34:11;101535.34;;;0.26;71.73
15998;BME280;8103;51.340;12.326;2023-01-29T00:36:38;101533.97;;;0.22;71.95
15998;BME280;8103;51.340;12.326;2023-01-29T00:39:05;101532.34;;;0.21;72.53
15998;BME280;8103;51.340;12.326;2023-01-29T00:41:37;101524.88;;;0.17;73.00
15998;BME280;8103;51.340;12.326;2023-01-29T00:44:22;101529.66;;;0.13;72.79
15998;BME280;8103;51.340;12.326;2023-01-29T00:47:08;101531.59;;;0.11;72.97
15998;BME280;8103;51.340;12.326;2023-01-29T00:49:55;101531.22;;;0.06;72.97
15998;BME280;8103;51.340;12.326;2023-01-29T00:52:23;101524.28;;;0.05;73.16
15998;BME280;8103;51.340;12.326;2023-01-29T00:54:59;101520.47;;;-0.01;73.38
15998;BME280;8103;51.340;12.326;2023-01-29T00:57:28;101517.00;;;-0.01;73.59
15998;BME280;8103;51.340;12.326;2023-01-29T00:59:55;101508.56;;;-0.05;73.63
15998;BME280;8103;51.340;12.326;2023-01-29T01:02:23;101505.78;;;-0.03;73.84
15998;BME280;8103;51.340;12.326;2023-01-29T01:05:11;101506.44;;;-0.01;73.50
15998;BME280;8103;51.340;12.326;2023-01-29T01:07:40;101509.53;;;-0.06;73.40
15998;BME280;8103;51.340;12.326;2023-01-29T01:10:11;101513.31;;;-0.08;73.45
15998;BME280;8103;51.340;12.326;2023-01-29T01:15:24;101510.97;;;-0.11;73.79
15998;BME280;8103;51.340;12.326;2023-01-29T01:17:57;101509.34;;;-0.12;74.58
15998;BME280;8103;51.340;12.326;2023-01-29T01:20:28;101510.97;;;-0.11;74.26
15998;BME280;8103;51.340;12.326;2023-01-29T01:22:56;101509.34;;;-0.12;74.05
15998;BME280;8103;51.340;12.326;2023-01-29T01:25:25;101506.00;;;-0.14;73.91
15998;BME280;8103;51.340;12.326;2023-01-29T01:27:54;101493.28;;;-0.19;74.78
15998;BME280;8103;51.340;12.326;2023-01-29T01:30:24;101495.06;;;-0.19;74.43
15998;BME280;8103;51.340;12.326;2023-01-29T01:32:51;101483.59;;;-0.18;74.27
15998;BME280;8103;51.340;12.326;2023-01-29T01:35:18;101482.91;;;-0.20;74.51
15998;BME280;8103;51.340;12.326;2023-01-29T01:37:45;101484.47;;;-0.27;75.23
15998;BME280;8103;51.340;12.326;2023-01-29T01:40:17;101477.88;;;-0.31;75.26
15998;BME280;8103;51.340;12.326;2023-01-29T01:42:57;101469.56;;;-0.36;75.41
15998;BME280;8103;51.340;12.326;2023-01-29T01:45:30;101477.78;;;-0.39;75.96
15998;BME280;8103;51.340;12.326;2023-01-29T01:48:04;101471.84;;;-0.41;76.23
15998;BME280;8103;51.340;12.326;2023-01-29T01:50:41;101472.16;;;-0.44;76.38
15998;BME280;8103;51.340;12.326;2023-01-29T01:53:19;101475.75;;;-0.45;76.14
15998;BME280;8103;51.340;12.326;2023-01-29T01:56:03;101481.31;;;-0.48;76.37
15998;BME280;8103;51.340;12.326;2023-01-29T01:58:48;101481.91;;;-0.54;77.27
15998;BME280;8103;51.340;12.326;2023-01-29T02:01:17;101484.53;;;-0.54;77.00
15998;BME280;8103;51.340;12.326;2023-01-29T02:04:00;101485.50;;;-0.55;77.68
15998;BME280;8103;51.340;12.326;2023-01-29T02:06:47;101491.75;;;-0.56;78.04
15998;BME280;8103;51.340;12.326;2023-01-29T02:09:46;101478.59;;;-0.56;77.53
15998;BME280;8103;51.340;12.326;2023-01-29T02:12:19;101478.59;;;-0.56;78.28
15998;BME280;8103;51.340;12.326;2023-01-29T02:14:47;101483.56;;;-0.53;77.48
15998;BME280;8103;51.340;12.326;2023-01-29T02:17:18;101480.25;;;-0.55;77.72
15998;BME280;8103;51.340;12.326;2023-01-29T02:20:11;101483.72;;;-0.55;78.05
15998;BME280;8103;51.340;12.326;2023-01-29T02:28:51;101482.44;;;-0.51;77.83
15998;BME280;8103;51.340;12.326;2023-01-29T02:31:33;101480.34;;;-0.47;77.95
15998;BME280;8103;51.340;12.326;2023-01-29T02:34:19;101484.19;;;-0.42;77.32
15998;BME280;8103;51.340;12.326;2023-01-29T02:37:08;101467.69;;;-0.44;77.26
15998;BME280;8103;51.340;12.326;2023-01-29T02:39:49;101483.13;;;-0.49;77.02
15998;BME280;8103;51.340;12.326;2023-01-29T02:42:26;101485.22;;;-0.52;77.50
15998;BME280;8103;51.340;12.326;2023-01-29T02:45:11;101494.41;;;-0.56;78.12
15998;BME280;8103;51.340;12.326;2023-01-29T02:47:48;101494.91;;;-0.53;78.01
15998;BME280;8103;51.340;12.326;2023-01-29T02:50:36;101494.09;;;-0.53;78.25
15998;BME280;8103;51.340;12.326;2023-01-29T02:53:17;101482.72;;;-0.54;77.78
15998;BME280;8103;51.340;12.326;2023-01-29T02:56:04;101487.16;;;-0.54;78.34
15998;BME280;8103;51.340;12.326;2023-01-29T02:58:43;101497.41;;;-0.51;77.80
15998;BME280;8103;51.340;12.326;2023-01-29T03:01:19;101498.38;;;-0.52;78.03
15998;BME280;8103;51.340;12.326;2023-01-29T03:03:55;101479.66;;;-0.49;77.79
15998;BME280;8103;51.340;12.326;2023-01-29T03:06:36;101480.94;;;-0.53;77.81
15998;BME280;8103;51.340;12.326;2023-01-29T03:09:12;101475.81;;;-0.55;78.17
15998;BME280;8103;51.340;12.326;2023-01-29T03:11:48;101464.75;;;-0.58;77.68
15998;BME280;8103;51.340;12.326;2023-01-29T03:14:34;101464.09;;;-0.60;78.02
15998;BME280;8103;51.340;12.326;2023-01-29T03:17:28;101477.53;;;-0.63;78.72
15998;BME280;8103;51.340;12.326;2023-01-29T03:19:59;101468.97;;;-0.65;78.24
15998;BME280;8103;51.340;12.326;2023-01-29T03:22:27;101473.69;;;-0.69;78.38
15998;BME280;8103;51.340;12.326;2023-01-29T03:24:58;101472.31;;;-0.73;79.08
15998;BME280;8103;51.340;12.326;2023-01-29T03:27:53;101465.25;;;-0.72;79.13
15998;BME280;8103;51.340;12.326;2023-01-29T03:30:56;101466.84;;;-0.79;78.63
15998;BME280;8103;51.340;12.326;2023-01-29T03:34:06;101470.44;;;-0.80;78.60
15998;BME280;8103;51.340;12.326;2023-01-29T03:36:46;101470.72;;;-0.83;79.49
15998;BME280;8103;51.340;12.326;2023-01-29T03:39:16;101469.22;;;-0.86;79.23
15998;BME280;8103;51.340;12.326;2023-01-29T03:41:58;101473.50;;;-0.85;79.44
15998;BME280;8103;51.340;12.326;2023-01-29T03:45:11;101471.31;;;-0.89;79.51
15998;BME280;8103;51.340;12.326;2023-01-29T03:51:24;101466.34;;;-0.92;79.88
15998;BME280;8103;51.340;12.326;2023-01-29T03:58:16;101460.69;;;-0.97;80.59
15998;BME280;8103;51.340;12.326;2023-01-29T04:00:26;101466.91;;;-0.98;80.04
15998;BME280;8103;51.340;12.326;2023-01-29T04:03:07;101466.41;;;-1.02;80.77
15998;BME280;8103;51.340;12.326;2023-01-29T04:05:48;101461.28;;;-1.03;81.48
15998;BME280;8103;51.340;12.326;2023-01-29T04:08:26;101461.97;;;-1.01;81.11
15998;BME280;8103;51.340;12.326;2023-01-29T04:10:58;101457.00;;;-1.04;81.55
15998;BME280;8103;51.340;12.326;2023-01-29T04:13:30;101463.63;;;-1.00;81.28
15998;BME280;8103;51.340;12.326;2023-01-29T04:16:01;101455.16;;;-0.94;81.59
15998;BME280;8103;51.340;12.326;2023-01-29T04:18:32;101461.91;;;-0.92;81.37
15998;BME280;8103;51.340;12.326;2023-01-29T04:21:00;101448.59;;;-0.90;80.88
15998;BME280;8103;51.340;12.326;2023-01-29T04:23:27;101445.13;;;-0.91;80.42
15998;BME280;8103;51.340;12.326;2023-01-29T04:32:06;101432.41;;;-0.95;80.16
15998;BME280;8103;51.340;12.326;2023-01-29T04:44:15;101419.47;;;-1.06;81.67
15998;BME280;8103;51.340;12.326;2023-01-29T04:50:43;101412.66;;;-0.99;81.44
15998;BME280;8103;51.340;12.326;2023-01-29T04:53:22;101400.47;;;-1.00;81.43
15998;BME280;8103;51.340;12.326;2023-01-29T04:56:05;101395.72;;;-0.97;81.58
15998;BME280;8103;51.340;12.326;2023-01-29T04:58:53;101401.53;;;-0.93;80.95
15998;BME280;8103;51.340;12.326;2023-01-29T05:01:24;101392.81;;;-0.94;80.99
15998;BME280;8103;51.340;12.326;2023-01-29T05:03:59;101380.78;;;-0.96;81.15
15998;BME280;8103;51.340;12.326;2023-01-29T05:06:30;101374.81;;;-0.98;81.96
15998;BME280;8103;51.340;12.326;2023-01-29T05:09:00;101382.66;;;-0.89;80.99
15998;BME280;8103;51.340;12.326;2023-01-29T05:11:31;101381.03;;;-0.90;80.61
15998;BME280;8103;51.340;12.326;2023-01-29T05:14:03;101380.59;;;-0.85;80.84
15998;BME280;8103;51.340;12.326;2023-01-29T05:16:40;101380.28;;;-0.82;81.40
15998;BME280;8103;51.340;12.326;2023-01-29T05:19:13;101373.88;;;-0.80;81.25
15998;BME280;8103;51.340;12.326;2023-01-29T05:21:48;101386.16;;;-0.71;80.46
15998;BME280;8103;51.340;12.326;2023-01-29T05:24:25;101374.47;;;-0.68;79.80
15998;BME280;8103;51.340;12.326;2023-01-29T05:26:54;101373.66;;;-0.69;80.68
15998;BME280;8103;51.340;12.326;2023-01-29T05:29:45;101380.44;;;-0.66;80.23
15998;BME280;8103;51.340;12.326;2023-01-29T05:32:17;101368.53;;;-0.70;80.89
15998;BME280;8103;51.340;12.326;2023-01-29T05:34:43;101367.28;;;-0.66;80.56
15998;BME280;8103;51.340;12.326;2023-01-29T05:37:10;101363.06;;;-0.59;79.97
15998;BME280;8103;51.340;12.326;2023-01-29T05:39:37;101357.19;;;-0.53;80.23
15998;BME280;8103;51.340;12.326;2023-01-29T05:42:04;101358.84;;;-0.52;80.16
15998;BME280;8103;51.340;12.326;2023-01-29T05:44:31;101359.66;;;-0.52;79.53
15998;BME280;8103;51.340;12.326;2023-01-29T05:46:58;101356.88;;;-0.50;79.60
15998;BME280;8103;51.340;12.326;2023-01-29T05:49:24;101353.25;;;-0.49;79.44
15998;BME280;8103;51.340;12.326;2023-01-29T05:51:51;101357.53;;;-0.48;79.53
15998;BME280;8103;51.340;12.326;2023-01-29T05:54:18;101363.78;;;-0.49;79.97
15998;BME280;8103;51.340;12.326;2023-01-29T05:56:45;101372.06;;;-0.44;79.15
15998;BME280;8103;51.340;12.326;2023-01-29T05:59:12;101370.09;;;-0.42;79.72
15998;BME280;8103;51.340;12.326;2023-01-29T06:01:39;101371.78;;;-0.41;79.37
15998;BME280;8103;51.340;12.326;2023-01-29T06:04:05;101368.47;;;-0.43;79.80
15998;BME280;8103;51.340;12.326;2023-01-29T06:06:34;101373.47;;;-0.32;79.35
15998;BME280;8103;51.340;12.326;2023-01-29T06:09:01;101375.75;;;-0.37;79.52
15998;BME280;8103;51.340;12.326;2023-01-29T06:11:28;101369.72;;;-0.30;79.39
15998;BME280;8103;51.340;12.326;2023-01-29T06:13:55;101379.13;;;-0.27;79.22
15998;BME280;8103;51.340;12.326;2023-01-29T06:16:22;101370.53;;;-0.29;78.69
15998;BME280;8103;51.340;12.326;2023-01-29T06:18:49;101368.59;;;-0.27;79.36
15998;BME280;8103;51.340;12.326;2023-01-29T06:21:16;101375.19;;;-0.23;78.95
15998;BME280;8103;51.340;12.326;2023-01-29T06:23:45;101380.47;;;-0.23;79.42
15998;BME280;8103;51.340;12.326;2023-01-29T06:26:14;101383.47;;;-0.18;79.13
15998;BME280;8103;51.340;12.326;2023-01-29T06:28:41;101383.63;;;-0.20;79.38
15998;BME280;8103;51.340;12.326;2023-01-29T06:31:10;101386.56;;;-0.23;79.11
15998;BME280;8103;51.340;12.326;2023-01-29T06:33:57;101392.34;;;-0.19;79.73
15998;BME280;8103;51.340;12.326;2023-01-29T06:36:24;101406.88;;;-0.15;79.40
15998;BME280;8103;51.340;12.326;2023-01-29T06:38:50;101408.06;;;-0.10;79.09
15998;BME280;8103;51.340;12.326;2023-01-29T06:41:18;101404.66;;;-0.02;78.93
15998;BME280;8103;51.340;12.326;2023-01-29T06:43:51;101411.72;;;-0.03;79.04
15998;BME280;8103;51.340;12.326;2023-01-29T06:46:17;101422.81;;;0.01;78.90
15998;BME280;8103;51.340;12.326;2023-01-29T06:48:44;101431.69;;;0.00;78.54
15998;BME280;8103;51.340;12.326;2023-01-29T06:51:11;101422.81;;;0.01;78.72
15998;BME280;8103;51.340;12.326;2023-01-29T06:53:39;101434.34;;;0.00;78.35
15998;BME280;8103;51.340;12.326;2023-01-29T06:56:07;101433.69;;;0.06;78.67
15998;BME280;8103;51.340;12.326;2023-01-29T06:58:37;101446.22;;;0.04;78.30
15998;BME280;8103;51.340;12.326;2023-01-29T07:01:06;101441.59;;;0.06;77.83
15998;BME280;8103;51.340;12.326;2023-01-29T07:03:33;101443.94;;;0.09;77.91
15998;BME280;8103;51.340;12.326;2023-01-29T07:06:00;101448.09;;;0.12;78.67
15998;BME280;8103;51.340;12.326;2023-01-29T07:08:27;101445.19;;;0.23;78.29
15998;BME280;8103;51.340;12.326;2023-01-29T07:11:01;101448.03;;;0.29;78.16
15998;BME280;8103;51.340;12.326;2023-01-29T07:13:28;101448.69;;;0.31;78.08
15998;BME280;8103;51.340;12.326;2023-01-29T07:16:00;101463.41;;;0.34;77.50
15998;BME280;8103;51.340;12.326;2023-01-29T07:18:29;101459.41;;;0.30;77.66
15998;BME280;8103;51.340;12.326;2023-01-29T07:25:02;101464.69;;;0.30;78.22
15998;BME280;8103;51.340;12.326;2023-01-29T07:27:29;101456.38;;;0.42;78.06
15998;BME280;8103;51.340;12.326;2023-01-29T07:29:56;101459.56;;;0.54;77.55
15998;BME280;8103;51.340;12.326;2023-01-29T07:32:23;101463.03;;;0.54;77.51
15998;BME280;8103;51.340;12.326;2023-01-29T07:34:50;101469.34;;;0.61;77.41
15998;BME280;8103;51.340;12.326;2023-01-29T07:37:17;101473.00;;;0.68;77.20
15998;BME280;8103;51.340;12.326;2023-01-29T07:39:44;101471.75;;;0.80;76.57
15998;BME280;8103;51.340;12.326;2023-01-29T07:42:12;101465.47;;;0.81;76.84
15998;BME280;8103;51.340;12.326;2023-01-29T07:44:38;101466.16;;;0.83;76.85
15998;BME280;8103;51.340;12.326;2023-01-29T07:47:05;101450.00;;;0.86;76.24
15998;BME280;8103;51.340;12.326;2023-01-29T07:49:32;101452.66;;;0.86;75.75
15998;BME280;8103;51.340;12.326;2023-01-29T07:51:59;101452.19;;;0.91;75.92
15998;BME280;8103;51.340;12.326;2023-01-29T07:54:26;101445.38;;;0.88;75.49
15998;BME280;8103;51.340;12.326;2023-01-29T07:56:52;101444.41;;;0.89;75.50
15998;BME280;8103;51.340;12.326;2023-01-29T07:59:19;101442.25;;;0.85;75.56
15998;BME280;8103;51.340;12.326;2023-01-29T08:01:46;101435.81;;;0.87;75.81
15998;BME280;8103;51.340;12.326;2023-01-29T08:04:13;101414.72;;;0.87;75.70
15998;BME280;8103;51.340;12.326;2023-01-29T08:06:40;101407.78;;;0.86;75.43
15998;BME280;8103;51.340;12.326;2023-01-29T08:09:07;101409.75;;;0.84;75.75
15998;BME280;8103;51.340;12.326;2023-01-29T08:11:34;101395.38;;;0.79;76.26
15998;BME280;8103;51.340;12.326;2023-01-29T08:14:01;101399.38;;;0.91;75.72
15998;BME280;8103;51.340;12.326;2023-01-29T08:16:27;101397.94;;;1.04;76.19
15998;BME280;8103;51.340;12.326;2023-01-29T08:18:54;101393.53;;;1.13;75.58
15998;BME280;8103;51.340;12.326;2023-01-29T08:25:28;101403.28;;;1.28;75.32
15998;BME280;8103;51.340;12.326;2023-01-29T08:27:56;101409.88;;;1.32;75.48
15998;BME280;8103;51.340;12.326;2023-01-29T08:30:30;101401.50;;;1.45;75.21
15998;BME280;8103;51.340;12.326;2023-01-29T08:32:57;101395.03;;;1.39;75.10
15998;BME280;8103;51.340;12.326;2023-01-29T08:35:25;101399.00;;;1.35;74.89
15998;BME280;8103;51.340;12.326;2023-01-29T08:37:56;101404.94;;;1.37;74.91
15998;BME280;8103;51.340;12.326;2023-01-29T08:40:27;101412.69;;;1.31;75.38
15998;BME280;8103;51.340;12.326;2023-01-29T08:43:04;101416.31;;;1.30;75.88
15998;BME280;8103;51.340;12.326;2023-01-29T08:45:44;101419.13;;;1.28;75.64
15998;BME280;8103;51.340;12.326;2023-01-29T08:48:13;101407.25;;;1.24;76.31
15998;BME280;8103;51.340;12.326;2023-01-29T08:50:41;101419.75;;;1.22;76.35
15998;BME280;8103;51.340;12.326;2023-01-29T08:53:08;101422.41;;;1.14;79.58
15998;BME280;8103;51.340;12.326;2023-01-29T08:55:38;101423.03;;;1.16;81.01
15998;BME280;8103;51.340;12.326;2023-01-29T08:58:10;101436.25;;;1.16;80.62
15998;BME280;8103;51.340;12.326;2023-01-29T09:00:38;101440.38;;;1.11;80.55
15998;BME280;8103;51.340;12.326;2023-01-29T09:03:04;101417.44;;;1.11;80.72
15998;BME280;8103;51.340;12.326;2023-01-29T09:05:35;101409.34;;;1.13;80.66
15998;BME280;8103;51.340;12.326;2023-01-29T09:08:03;101409.84;;;1.16;80.17
15998;BME280;8103;51.340;12.326;2023-01-29T09:10:32;101412.47;;;1.16;81.41
15998;BME280;8103;51.340;12.326;2023-01-29T09:13:02;101407.53;;;1.13;81.93
15998;BME280;8103;51.340;12.326;2023-01-29T09:15:29;101399.59;;;1.13;81.52
15998;BME280;8103;51.340;12.326;2023-01-29T09:17:56;101394.34;;;1.21;81.21
15998;BME280;8103;51.340;12.326;2023-01-29T09:20:23;101400.28;;;1.23;80.32
15998;BME280;8103;51.340;12.326;2023-01-29T09:22:50;101393.19;;;1.24;79.75
15998;BME280;8103;51.340;12.326;2023-01-29T09:25:19;101378.50;;;1.29;79.44
15998;BME280;8103;51.340;12.326;2023-01-29T09:27:46;101375.88;;;1.37;78.75
15998;BME280;8103;51.340;12.326;2023-01-29T09:30:13;101366.31;;;1.44;78.19
15998;BME280;8103;51.340;12.326;2023-01-29T09:32:40;101358.91;;;1.48;77.82
15998;BME280;8103;51.340;12.326;2023-01-29T09:35:20;101369.28;;;1.57;77.56
15998;BME280;8103;51.340;12.326;2023-01-29T09:37:51;101379.53;;;1.68;76.99
15998;BME280;8103;51.340;12.326;2023-01-29T09:40:58;101381.38;;;1.76;75.77
15998;BME280;8103;51.340;12.326;2023-01-29T09:43:54;101382.50;;;1.73;76.09
15998;BME280;8103;51.340;12.326;2023-01-29T09:46:46;101382.16;;;1.92;76.02
15998;BME280;8103;51.340;12.326;2023-01-29T09:49:33;101392.06;;;1.98;75.31
15998;BME280;8103;51.340;12.326;2023-01-29T09:52:29;101388.78;;;1.96;74.95
15998;BME280;8103;51.340;12.326;2023-01-29T09:55:10;101379.69;;;1.91;74.65
15998;BME280;8103;51.340;12.326;2023-01-29T09:58:04;101368.44;;;1.97;74.75
15998;BME280;8103;51.340;12.326;2023-01-29T10:04:05;101359.84;;;2.03;74.82
15998;BME280;8103;51.340;12.326;2023-01-29T10:06:57;101357.84;;;2.13;73.60
15998;BME280;8103;51.340;12.326;2023-01-29T10:15:30;101347.19;;;2.29;73.64
15998;BME280;8103;51.340;12.326;2023-01-29T10:18:41;101338.13;;;2.32;73.49
15998;BME280;8103;51.340;12.326;2023-01-29T10:21:25;101338.41;;;2.37;73.66
15998;BME280;8103;51.340;12.326;2023-01-29T10:24:17;101333.75;;;2.47;73.48
15998;BME280;8103;51.340;12.326;2023-01-29T10:26:51;101332.03;;;2.62;73.33
15998;BME280;8103;51.340;12.326;2023-01-29T10:29:19;101331.53;;;2.58;72.55
15998;BME280;8103;51.340;12.326;2023-01-29T10:31:55;101318.50;;;2.57;73.02
15998;BME280;8103;51.340;12.326;2023-01-29T10:34:28;101315.47;;;2.68;72.86
15998;BME280;8103;51.340;12.326;2023-01-29T10:36:56;101309.47;;;2.74;72.67
15998;BME280;8103;51.340;12.326;2023-01-29T10:39:25;101315.56;;;2.82;72.00
15998;BME280;8103;51.340;12.326;2023-01-29T10:46:28;101308.22;;;3.15;71.01
15998;BME280;8103;51.340;12.326;2023-01-29T10:49:26;101296.78;;;3.14;70.70
15998;BME280;8103;51.340;12.326;2023-01-29T10:55:33;101286.44;;;3.05;70.39
15998;BME280;8103;51.340;12.326;2023-01-29T10:58:35;101290.44;;;3.23;71.18
15998;BME280;8103;51.340;12.326;2023-01-29T11:01:03;101284.91;;;3.33;70.06
15998;BME280;8103;51.340;12.326;2023-01-29T11:03:32;101289.13;;;3.42;69.48
15998;BME280;8103;51.340;12.326;2023-01-29T11:06:39;101277.97;;;3.09;70.76
15998;BME280;8103;51.340;12.326;2023-01-29T11:09:31;101278.91;;;3.16;70.66
15998;BME280;8103;51.340;12.326;2023-01-29T11:12:26;101262.59;;;3.27;71.03
15998;BME280;8103;51.340;12.326;2023-01-29T11:15:28;101266.75;;;3.44;70.28
15998;BME280;8103;51.340;12.326;2023-01-29T11:18:10;101269.53;;;3.80;69.12
15998;BME280;8103;51.340;12.326;2023-01-29T11:20:43;101264.06;;;3.81;68.18
15998;BME280;8103;51.340;12.326;2023-01-29T11:23:31;101253.00;;;3.78;68.17
15998;BME280;8103;51.340;12.326;2023-01-29T11:25:59;101238.38;;;3.82;68.23
15998;BME280;8103;51.340;12.326;2023-01-29T11:28:47;101246.69;;;3.93;68.07
15998;BME280;8103;51.340;12.326;2023-01-29T11:31:28;101239.75;;;3.92;67.61
15998;BME280;8103;51.340;12.326;2023-01-29T11:34:12;101249.25;;;3.87;67.40
15998;BME280;8103;51.340;12.326;2023-01-29T11:36:39;101234.69;;;3.83;68.01
15998;BME280;8103;51.340;12.326;2023-01-29T11:39:20;101231.59;;;3.94;67.88
15998;BME280;8103;51.340;12.326;2023-01-29T11:42:03;101211.47;;;3.85;67.82
15998;BME280;8103;51.340;12.326;2023-01-29T11:47:20;101215.50;;;4.10;67.05
15998;BME280;8103;51.340;12.326;2023-01-29T11:49:53;101231.47;;;4.31;65.16
15998;BME280;8103;51.340;12.326;2023-01-29T11:52:34;101219.69;;;4.19;66.07
15998;BME280;8103;51.340;12.326;2023-01-29T11:55:13;101217.28;;;4.24;66.09
15998;BME280;8103;51.340;12.326;2023-01-29T11:57:48;101203.78;;;4.04;65.87
15998;BME280;8103;51.340;12.326;2023-01-29T12:00:26;101192.69;;;4.15;65.45
15998;BME280;8103;51.340;12.326;2023-01-29T12:05:59;101170.72;;;4.21;65.30
15998;BME280;8103;51.340;12.326;2023-01-29T12:08:37;101184.97;;;4.35;65.77
15998;BME280;8103;51.340;12.326;2023-01-29T12:11:28;101177.59;;;4.52;64.23
15998;BME280;8103;51.340;12.326;2023-01-29T12:13:59;101167.09;;;4.43;64.77
15998;BME280;8103;51.340;12.326;2023-01-29T12:16:41;101172.34;;;4.58;64.62
15998;BME280;8103;51.340;12.326;2023-01-29T12:19:28;101174.88;;;4.87;64.14
15998;BME280;8103;51.340;12.326;2023-01-29T12:26:35;101162.81;;;4.85;62.89
15998;BME280;8103;51.340;12.326;2023-01-29T12:29:39;101148.56;;;4.71;63.85
15998;BME280;8103;51.340;12.326;2023-01-29T12:32:38;101135.28;;;4.71;63.23
15998;BME280;8103;51.340;12.326;2023-01-29T12:35:24;101145.41;;;4.82;63.59
15998;BME280;8103;51.340;12.326;2023-01-29T12:38:09;101129.22;;;4.77;63.46
15998;BME280;8103;51.340;12.326;2023-01-29T12:40:48;101135.50;;;4.97;63.85
15998;BME280;8103;51.340;12.326;2023-01-29T12:43:21;101134.94;;;5.02;61.94
15998;BME280;8103;51.340;12.326;2023-01-29T12:45:54;101132.56;;;4.86;62.78
15998;BME280;8103;51.340;12.326;2023-01-29T12:48:37;101127.91;;;4.67;63.64
15998;BME280;8103;51.340;12.326;2023-01-29T12:51:18;101126.53;;;4.71;64.30
15998;BME280;8103;51.340;12.326;2023-01-29T12:53:54;101139.09;;;4.83;63.79
15998;BME280;8103;51.340;12.326;2023-01-29T13:00:35;101117.56;;;4.99;63.18
15998;BME280;8103;51.340;12.326;2023-01-29T13:03:09;101125.41;;;5.07;62.63
15998;BME280;8103;51.340;12.326;2023-01-29T13:05:50;101126.94;;;4.95;62.96
15998;BME280;8103;51.340;12.326;2023-01-29T13:08:36;101120.75;;;4.88;63.63
15998;BME280;8103;51.340;12.326;2023-01-29T13:11:41;101118.50;;;4.64;63.28
15998;BME280;8103;51.340;12.326;2023-01-29T13:14:22;101106.22;;;4.42;64.38
15998;BME280;8103;51.340;12.326;2023-01-29T13:17:08;101104.31;;;4.36;65.50
15998;BME280;8103;51.340;12.326;2023-01-29T13:19:44;101095.34;;;4.37;65.24
15998;BME280;8103;51.340;12.326;2023-01-29T13:22:25;101087.28;;;4.45;64.40
15998;BME280;8103;51.340;12.326;2023-01-29T13:24:53;101087.28;;;4.45;64.71
15998;BME280;8103;51.340;12.326;2023-01-29T13:27:34;101075.78;;;4.38;64.86
15998;BME280;8103;51.340;12.326;2023-01-29T13:30:02;101064.22;;;4.46;64.23
15998;BME280;8103;51.340;12.326;2023-01-29T13:32:33;101066.66;;;4.26;66.45
15998;BME280;8103;51.340;12.326;2023-01-29T13:35:12;101070.88;;;4.41;66.00
15998;BME280;8103;51.340;12.326;2023-01-29T13:37:50;101063.69;;;4.57;65.14
15998;BME280;8103;51.340;12.326;2023-01-29T13:40:24;101067.00;;;4.65;64.57
15998;BME280;8103;51.340;12.326;2023-01-29T13:42:53;101073.09;;;4.59;64.85
15998;BME280;8103;51.340;12.326;2023-01-29T13:45:42;101076.38;;;4.61;64.90
15998;BME280;8103;51.340;12.326;2023-01-29T13:48:28;101059.63;;;4.61;65.61
15998;BME280;8103;51.340;12.326;2023-01-29T13:51:02;101059.00;;;4.59;65.54
15998;BME280;8103;51.340;12.326;2023-01-29T13:53:38;101056.06;;;4.75;64.97
15998;BME280;8103;51.340;12.326;2023-01-29T13:59:04;101056.94;;;4.54;65.50
15998;BME280;8103;51.340;12.326;2023-01-29T14:06:51;101074.38;;;4.42;65.57
15998;BME280;8103;51.340;12.326;2023-01-29T14:10:00;101079.03;;;4.40;66.11
15998;BME280;8103;51.340;12.326;2023-01-29T14:12:37;101076.91;;;4.29;66.63
15998;BME280;8103;51.340;12.326;2023-01-29T14:15:18;101081.22;;;4.09;66.87
15998;BME280;8103;51.340;12.326;2023-01-29T14:18:16;101093.69;;;3.94;67.39
15998;BME280;8103;51.340;12.326;2023-01-29T14:20:55;101089.13;;;3.88;67.70
15998;BME280;8103;51.340;12.326;2023-01-29T14:26:47;101095.00;;;3.69;68.64
15998;BME280;8103;51.340;12.326;2023-01-29T14:29:25;101082.22;;;3.58;68.91
15998;BME280;8103;51.340;12.326;2023-01-29T14:32:19;101088.28;;;3.52;69.70
15998;BME280;8103;51.340;12.326;2023-01-29T14:34:50;101072.00;;;3.55;70.29
15998;BME280;8103;51.340;12.326;2023-01-29T14:37:26;101073.66;;;3.56;70.03
15998;BME280;8103;51.340;12.326;2023-01-29T14:40:12;101068.78;;;3.59;69.18
15998;BME280;8103;51.340;12.326;2023-01-29T14:43:04;101063.78;;;3.50;69.38
15998;BME280;8103;51.340;12.326;2023-01-29T14:45:39;101063.31;;;3.46;70.10
15998;BME280;8103;51.340;12.326;2023-01-29T14:52:17;101064.59;;;3.36;70.18
15998;BME280;8103;51.340;12.326;2023-01-29T14:54:47;101056.56;;;3.29;71.69
15998;BME280;8103;51.340;12.326;2023-01-29T14:57:18;101064.06;;;3.26;70.73
15998;BME280;8103;51.340;12.326;2023-01-29T14:59:57;101064.41;;;3.23;71.02
15998;BME280;8103;51.340;12.326;2023-01-29T15:02:36;101072.00;;;3.26;71.69
15998;BME280;8103;51.340;12.326;2023-01-29T15:05:11;101067.44;;;3.20;71.56
15998;BME280;8103;51.340;12.326;2023-01-29T15:07:59;101066.81;;;3.18;71.83
15998;BME280;8103;51.340;12.326;2023-01-29T15:10:55;101050.56;;;3.06;71.65